sensor_id;sensor_type;location;lat;lon;timestamp;P1;durP1;ratioP1;P2;durP2;ratioP2
16634;SDS011;8431;52.458;9.998;2023-05-18T00:01:29;7.22;;;4.22;;
16634;SDS011;8431;52.458;9.998;2023-05-18T00:03:56;8.65;;;4.07;;
16634;SDS011;8431;52.458;9.998;2023-05-18T00:06:23;12.10;;;4.35;;
16634;SDS011;8431;52.458;9.998;2023-05-18T00:08:51;7.13;;;3.90;;
16634;SDS011;8431;52.458;9.998;2023-05-18T00:11:18;8.50;;;4.75;;
16634;SDS011;8431;52.458;9.998;2023-05-18T00:13:48;4.65;;;3.95;;
16634;SDS011;8431;52.458;9.998;2023-05-18T00:16:15;7.20;;;3.67;;
16634;SDS011;8431;52.458;9.998;2023-05-18T00:18:45;8.43;;;3.95;;
16634;SDS011;8431;52.458;9.998;2023-05-18T00:21:12;9.82;;;3.95;;
16634;SDS011;8431;52.458;9.998;2023-05-18T00:23:40;8.70;;;3.97;;
16634;SDS011;8431;52.458;9.998;2023-05-18T00:26:14;10.45;;;4.00;;
16634;SDS011;8431;52.458;9.998;2023-05-18T00:28:44;8.32;;;3.92;;
16634;SDS011;8431;52.458;9.998;2023-05-18T00:31:13;7.47;;;3.63;;
16634;SDS011;8431;52.458;9.998;2023-05-18T00:33:40;5.68;;;3.63;;
16634;SDS011;8431;52.458;9.998;2023-05-18T00:36:09;6.00;;;3.58;;
16634;SDS011;8431;52.458;9.998;2023-05-18T00:38:36;6.20;;;3.47;;
16634;SDS011;8431;52.458;9.998;2023-05-18T00:41:03;4.40;;;3.20;;
16634;SDS011;8431;52.458;9.998;2023-05-18T00:43:30;6.88;;;3.22;;
16634;SDS011;8431;52.458;9.998;2023-05-18T00:45:57;5.00;;;3.63;;
16634;SDS011;8431;52.458;9.998;2023-05-18T00:48:25;9.93;;;3.70;;
16634;SDS011;8431;52.458;9.998;2023-05-18T00:50:52;9.18;;;3.95;;
16634;SDS011;8431;52.458;9.998;2023-05-18T00:53:19;4.50;;;3.38;;
16634;SDS011;8431;52.458;9.998;2023-05-18T00:55:46;6.97;;;3.40;;
16634;SDS011;8431;52.458;9.998;2023-05-18T00:58:13;8.68;;;3.35;;
16634;SDS011;8431;52.458;9.998;2023-05-18T01:00:42;6.05;;;3.25;;
16634;SDS011;8431;52.458;9.998;2023-05-18T01:03:10;7.75;;;3.40;;
16634;SDS011;8431;52.458;9.998;2023-05-18T01:05:40;12.18;;;4.55;;
16634;SDS011;8431;52.458;9.998;2023-05-18T01:08:07;6.25;;;3.65;;
16634;SDS011;8431;52.458;9.998;2023-05-18T01:10:36;8.80;;;3.80;;
16634;SDS011;8431;52.458;9.998;2023-05-18T01:13:14;5.65;;;3.40;;
16634;SDS011;8431;52.458;9.998;2023-05-18T01:15:49;10.13;;;3.80;;
16634;SDS011;8431;52.458;9.998;2023-05-18T01:18:24;4.90;;;3.30;;
16634;SDS011;8431;52.458;9.998;2023-05-18T01:20:57;10.38;;;3.67;;
16634;SDS011;8431;52.458;9.998;2023-05-18T01:23:29;4.88;;;3.42;;
16634;SDS011;8431;52.458;9.998;2023-05-18T01:26:16;3.70;;;3.10;;
16634;SDS011;8431;52.458;9.998;2023-05-18T01:28:49;5.03;;;3.65;;
16634;SDS011;8431;52.458;9.998;2023-05-18T01:31:17;7.20;;;3.50;;
16634;SDS011;8431;52.458;9.998;2023-05-18T01:33:44;7.88;;;3.78;;
16634;SDS011;8431;52.458;9.998;2023-05-18T01:36:11;8.20;;;3.80;;
16634;SDS011;8431;52.458;9.998;2023-05-18T01:38:38;5.55;;;3.25;;
16634;SDS011;8431;52.458;9.998;2023-05-18T01:41:09;9.52;;;3.35;;
16634;SDS011;8431;52.458;9.998;2023-05-18T01:43:45;6.57;;;3.33;;
16634;SDS011;8431;52.458;9.998;2023-05-18T01:46:19;10.00;;;3.67;;
16634;SDS011;8431;52.458;9.998;2023-05-18T01:48:54;7.43;;;3.42;;
16634;SDS011;8431;52.458;9.998;2023-05-18T01:51:25;8.30;;;3.63;;
16634;SDS011;8431;52.458;9.998;2023-05-18T01:53:58;6.55;;;3.50;;
16634;SDS011;8431;52.458;9.998;2023-05-18T01:56:28;5.45;;;3.30;;
16634;SDS011;8431;52.458;9.998;2023-05-18T01:58:58;5.65;;;3.50;;
16634;SDS011;8431;52.458;9.998;2023-05-18T02:01:26;7.63;;;3.55;;
16634;SDS011;8431;52.458;9.998;2023-05-18T02:03:53;6.00;;;3.65;;
16634;SDS011;8431;52.458;9.998;2023-05-18T02:06:20;6.88;;;3.55;;
16634;SDS011;8431;52.458;9.998;2023-05-18T02:08:47;7.80;;;3.17;;
16634;SDS011;8431;52.458;9.998;2023-05-18T02:11:14;7.35;;;3.60;;
16634;SDS011;8431;52.458;9.998;2023-05-18T02:13:41;9.32;;;4.00;;
16634;SDS011;8431;52.458;9.998;2023-05-18T02:16:09;5.63;;;3.33;;
16634;SDS011;8431;52.458;9.998;2023-05-18T02:18:37;6.63;;;3.42;;
16634;SDS011;8431;52.458;9.998;2023-05-18T02:21:04;7.47;;;3.92;;
16634;SDS011;8431;52.458;9.998;2023-05-18T02:23:33;6.43;;;3.20;;
16634;SDS011;8431;52.458;9.998;2023-05-18T02:26:00;5.55;;;3.40;;
16634;SDS011;8431;52.458;9.998;2023-05-18T02:28:27;6.03;;;3.30;;
16634;SDS011;8431;52.458;9.998;2023-05-18T02:31:02;11.50;;;3.90;;
16634;SDS011;8431;52.458;9.998;2023-05-18T02:33:31;5.75;;;3.30;;
16634;SDS011;8431;52.458;9.998;2023-05-18T02:36:18;9.48;;;4.07;;
16634;SDS011;8431;52.458;9.998;2023-05-18T02:38:46;4.63;;;3.45;;
16634;SDS011;8431;52.458;9.998;2023-05-18T02:41:13;6.00;;;2.95;;
16634;SDS011;8431;52.458;9.998;2023-05-18T02:43:40;3.88;;;3.30;;
16634;SDS011;8431;52.458;9.998;2023-05-18T02:46:07;4.80;;;3.78;;
16634;SDS011;8431;52.458;9.998;2023-05-18T02:48:35;4.53;;;3.50;;
16634;SDS011;8431;52.458;9.998;2023-05-18T02:51:02;8.48;;;3.47;;
16634;SDS011;8431;52.458;9.998;2023-05-18T02:53:29;5.97;;;3.22;;
16634;SDS011;8431;52.458;9.998;2023-05-18T02:55:56;3.58;;;3.28;;
16634;SDS011;8431;52.458;9.998;2023-05-18T02:58:23;6.22;;;3.28;;
16634;SDS011;8431;52.458;9.998;2023-05-18T03:00:51;5.93;;;3.75;;
16634;SDS011;8431;52.458;9.998;2023-05-18T03:03:19;3.78;;;3.47;;
16634;SDS011;8431;52.458;9.998;2023-05-18T03:05:49;7.93;;;3.88;;
16634;SDS011;8431;52.458;9.998;2023-05-18T03:08:17;6.35;;;3.58;;
16634;SDS011;8431;52.458;9.998;2023-05-18T03:10:44;5.25;;;3.50;;
16634;SDS011;8431;52.458;9.998;2023-05-18T03:13:11;4.25;;;3.67;;
16634;SDS011;8431;52.458;9.998;2023-05-18T03:15:38;4.75;;;3.40;;
16634;SDS011;8431;52.458;9.998;2023-05-18T03:18:06;7.38;;;3.80;;
16634;SDS011;8431;52.458;9.998;2023-05-18T03:20:33;4.43;;;3.55;;
16634;SDS011;8431;52.458;9.998;2023-05-18T03:23:03;5.55;;;3.45;;
16634;SDS011;8431;52.458;9.998;2023-05-18T03:25:30;6.15;;;3.90;;
16634;SDS011;8431;52.458;9.998;2023-05-18T03:27:57;4.57;;;3.50;;
16634;SDS011;8431;52.458;9.998;2023-05-18T03:30:24;3.88;;;3.50;;
16634;SDS011;8431;52.458;9.998;2023-05-18T03:32:50;6.95;;;3.45;;
16634;SDS011;8431;52.458;9.998;2023-05-18T03:35:17;5.53;;;3.47;;
16634;SDS011;8431;52.458;9.998;2023-05-18T03:37:44;4.32;;;3.70;;
16634;SDS011;8431;52.458;9.998;2023-05-18T03:40:13;8.80;;;4.07;;
16634;SDS011;8431;52.458;9.998;2023-05-18T03:42:41;6.63;;;3.95;;
16634;SDS011;8431;52.458;9.998;2023-05-18T03:45:08;4.07;;;3.20;;
16634;SDS011;8431;52.458;9.998;2023-05-18T03:47:36;4.30;;;3.05;;
16634;SDS011;8431;52.458;9.998;2023-05-18T03:50:04;9.35;;;3.60;;
16634;SDS011;8431;52.458;9.998;2023-05-18T03:52:32;6.20;;;3.63;;
16634;SDS011;8431;52.458;9.998;2023-05-18T03:54:59;4.80;;;3.30;;
16634;SDS011;8431;52.458;9.998;2023-05-18T03:57:28;7.68;;;3.53;;
16634;SDS011;8431;52.458;9.998;2023-05-18T03:59:55;4.72;;;3.25;;
16634;SDS011;8431;52.458;9.998;2023-05-18T04:02:22;5.70;;;3.30;;
16634;SDS011;8431;52.458;9.998;2023-05-18T04:04:49;11.30;;;3.92;;
16634;SDS011;8431;52.458;9.998;2023-05-18T04:07:18;4.43;;;3.38;;
16634;SDS011;8431;52.458;9.998;2023-05-18T04:09:48;7.65;;;3.47;;
16634;SDS011;8431;52.458;9.998;2023-05-18T04:12:21;6.07;;;3.30;;
16634;SDS011;8431;52.458;9.998;2023-05-18T04:14:50;4.53;;;3.15;;
16634;SDS011;8431;52.458;9.998;2023-05-18T04:17:18;5.32;;;3.70;;
16634;SDS011;8431;52.458;9.998;2023-05-18T04:19:47;7.40;;;3.08;;
16634;SDS011;8431;52.458;9.998;2023-05-18T04:22:17;7.13;;;3.50;;
16634;SDS011;8431;52.458;9.998;2023-05-18T04:24:44;5.88;;;3.40;;
16634;SDS011;8431;52.458;9.998;2023-05-18T04:27:11;6.30;;;3.65;;
16634;SDS011;8431;52.458;9.998;2023-05-18T04:29:39;4.78;;;3.60;;
16634;SDS011;8431;52.458;9.998;2023-05-18T04:32:09;5.75;;;3.42;;
16634;SDS011;8431;52.458;9.998;2023-05-18T04:34:36;5.13;;;3.55;;
16634;SDS011;8431;52.458;9.998;2023-05-18T04:37:03;5.38;;;3.60;;
16634;SDS011;8431;52.458;9.998;2023-05-18T04:39:30;4.97;;;3.40;;
16634;SDS011;8431;52.458;9.998;2023-05-18T04:41:58;4.20;;;3.60;;
16634;SDS011;8431;52.458;9.998;2023-05-18T04:44:28;8.88;;;4.28;;
16634;SDS011;8431;52.458;9.998;2023-05-18T04:46:58;6.80;;;3.90;;
16634;SDS011;8431;52.458;9.998;2023-05-18T04:49:26;6.68;;;3.95;;
16634;SDS011;8431;52.458;9.998;2023-05-18T04:51:54;5.70;;;3.40;;
16634;SDS011;8431;52.458;9.998;2023-05-18T04:54:23;14.68;;;4.30;;
16634;SDS011;8431;52.458;9.998;2023-05-18T04:56:50;5.20;;;3.80;;
16634;SDS011;8431;52.458;9.998;2023-05-18T04:59:18;6.25;;;4.20;;
16634;SDS011;8431;52.458;9.998;2023-05-18T05:01:50;9.15;;;4.68;;
16634;SDS011;8431;52.458;9.998;2023-05-18T05:04:20;10.57;;;3.97;;
16634;SDS011;8431;52.458;9.998;2023-05-18T05:06:49;9.43;;;3.92;;
16634;SDS011;8431;52.458;9.998;2023-05-18T05:09:16;5.97;;;4.00;;
16634;SDS011;8431;52.458;9.998;2023-05-18T05:11:43;10.27;;;4.38;;
16634;SDS011;8431;52.458;9.998;2023-05-18T05:14:10;6.45;;;5.00;;
16634;SDS011;8431;52.458;9.998;2023-05-18T05:16:36;7.03;;;4.47;;
16634;SDS011;8431;52.458;9.998;2023-05-18T05:19:04;13.60;;;4.55;;
16634;SDS011;8431;52.458;9.998;2023-05-18T05:21:31;6.25;;;4.32;;
16634;SDS011;8431;52.458;9.998;2023-05-18T05:23:59;8.95;;;4.88;;
16634;SDS011;8431;52.458;9.998;2023-05-18T05:26:29;7.97;;;4.30;;
16634;SDS011;8431;52.458;9.998;2023-05-18T05:29:02;10.07;;;4.70;;
16634;SDS011;8431;52.458;9.998;2023-05-18T05:31:29;7.47;;;5.03;;
16634;SDS011;8431;52.458;9.998;2023-05-18T05:33:58;8.13;;;4.63;;
16634;SDS011;8431;52.458;9.998;2023-05-18T05:36:25;10.27;;;4.32;;
16634;SDS011;8431;52.458;9.998;2023-05-18T05:38:52;7.45;;;4.65;;
16634;SDS011;8431;52.458;9.998;2023-05-18T05:41:21;9.50;;;4.93;;
16634;SDS011;8431;52.458;9.998;2023-05-18T05:43:48;9.88;;;4.70;;
16634;SDS011;8431;52.458;9.998;2023-05-18T05:46:16;6.65;;;4.38;;
16634;SDS011;8431;52.458;9.998;2023-05-18T05:48:43;7.35;;;4.38;;
16634;SDS011;8431;52.458;9.998;2023-05-18T05:51:09;13.52;;;4.78;;
16634;SDS011;8431;52.458;9.998;2023-05-18T05:53:36;4.07;;;3.67;;
16634;SDS011;8431;52.458;9.998;2023-05-18T05:56:03;5.85;;;4.30;;
16634;SDS011;8431;52.458;9.998;2023-05-18T05:58:33;8.95;;;4.70;;
16634;SDS011;8431;52.458;9.998;2023-05-18T06:01:00;5.40;;;4.20;;
16634;SDS011;8431;52.458;9.998;2023-05-18T06:03:27;11.80;;;4.57;;
16634;SDS011;8431;52.458;9.998;2023-05-18T06:05:55;8.57;;;3.75;;
16634;SDS011;8431;52.458;9.998;2023-05-18T06:08:22;5.05;;;4.28;;
16634;SDS011;8431;52.458;9.998;2023-05-18T06:10:49;7.57;;;4.13;;
16634;SDS011;8431;52.458;9.998;2023-05-18T06:13:16;5.75;;;4.35;;
16634;SDS011;8431;52.458;9.998;2023-05-18T06:15:44;7.13;;;4.50;;
16634;SDS011;8431;52.458;9.998;2023-05-18T06:18:11;8.10;;;5.63;;
16634;SDS011;8431;52.458;9.998;2023-05-18T06:20:38;8.18;;;4.70;;
16634;SDS011;8431;52.458;9.998;2023-05-18T06:23:05;8.27;;;5.00;;
16634;SDS011;8431;52.458;9.998;2023-05-18T06:25:32;7.43;;;5.30;;
16634;SDS011;8431;52.458;9.998;2023-05-18T06:28:00;10.23;;;6.07;;
16634;SDS011;8431;52.458;9.998;2023-05-18T06:30:27;7.75;;;4.90;;
16634;SDS011;8431;52.458;9.998;2023-05-18T06:32:55;6.53;;;4.53;;
16634;SDS011;8431;52.458;9.998;2023-05-18T06:35:22;9.85;;;4.95;;
16634;SDS011;8431;52.458;9.998;2023-05-18T06:37:49;7.13;;;4.93;;
16634;SDS011;8431;52.458;9.998;2023-05-18T06:40:16;6.53;;;4.90;;
16634;SDS011;8431;52.458;9.998;2023-05-18T06:42:43;9.00;;;5.03;;
16634;SDS011;8431;52.458;9.998;2023-05-18T06:45:10;7.50;;;5.18;;
16634;SDS011;8431;52.458;9.998;2023-05-18T06:47:38;7.18;;;5.45;;
16634;SDS011;8431;52.458;9.998;2023-05-18T06:50:08;8.32;;;5.35;;
16634;SDS011;8431;52.458;9.998;2023-05-18T06:52:35;7.45;;;5.85;;
16634;SDS011;8431;52.458;9.998;2023-05-18T06:55:02;7.28;;;5.45;;
16634;SDS011;8431;52.458;9.998;2023-05-18T06:57:29;10.40;;;5.82;;
16634;SDS011;8431;52.458;9.998;2023-05-18T06:59:57;7.40;;;6.07;;
16634;SDS011;8431;52.458;9.998;2023-05-18T07:02:24;9.23;;;5.88;;
16634;SDS011;8431;52.458;9.998;2023-05-18T07:04:52;6.82;;;5.75;;
16634;SDS011;8431;52.458;9.998;2023-05-18T07:07:20;8.07;;;5.60;;
16634;SDS011;8431;52.458;9.998;2023-05-18T07:09:47;10.85;;;6.32;;
16634;SDS011;8431;52.458;9.998;2023-05-18T07:12:14;7.07;;;6.03;;
16634;SDS011;8431;52.458;9.998;2023-05-18T07:14:41;6.38;;;5.80;;
16634;SDS011;8431;52.458;9.998;2023-05-18T07:17:08;7.38;;;6.32;;
16634;SDS011;8431;52.458;9.998;2023-05-18T07:19:35;8.80;;;6.03;;
16634;SDS011;8431;52.458;9.998;2023-05-18T07:22:02;7.95;;;5.65;;
16634;SDS011;8431;52.458;9.998;2023-05-18T07:24:33;9.68;;;6.18;;
16634;SDS011;8431;52.458;9.998;2023-05-18T07:26:59;10.18;;;5.78;;
16634;SDS011;8431;52.458;9.998;2023-05-18T07:31:57;10.10;;;7.07;;
16634;SDS011;8431;52.458;9.998;2023-05-18T07:34:25;8.13;;;6.80;;
16634;SDS011;8431;52.458;9.998;2023-05-18T07:36:52;7.22;;;6.45;;
16634;SDS011;8431;52.458;9.998;2023-05-18T07:39:19;7.43;;;6.75;;
16634;SDS011;8431;52.458;9.998;2023-05-18T07:41:53;8.50;;;6.78;;
16634;SDS011;8431;52.458;9.998;2023-05-18T07:44:21;8.70;;;7.07;;
16634;SDS011;8431;52.458;9.998;2023-05-18T07:46:48;8.90;;;6.43;;
16634;SDS011;8431;52.458;9.998;2023-05-18T07:49:15;7.60;;;6.82;;
16634;SDS011;8431;52.458;9.998;2023-05-18T07:51:42;10.30;;;7.00;;
16634;SDS011;8431;52.458;9.998;2023-05-18T07:54:08;8.25;;;6.95;;
16634;SDS011;8431;52.458;9.998;2023-05-18T07:56:35;9.68;;;8.38;;
16634;SDS011;8431;52.458;9.998;2023-05-18T07:59:04;9.65;;;6.38;;
16634;SDS011;8431;52.458;9.998;2023-05-18T08:01:32;8.35;;;6.78;;
16634;SDS011;8431;52.458;9.998;2023-05-18T08:03:59;8.50;;;7.07;;
16634;SDS011;8431;52.458;9.998;2023-05-18T08:06:26;12.60;;;8.38;;
16634;SDS011;8431;52.458;9.998;2023-05-18T08:08:53;7.65;;;7.03;;
16634;SDS011;8431;52.458;9.998;2023-05-18T08:11:20;9.27;;;7.38;;
16634;SDS011;8431;52.458;9.998;2023-05-18T08:13:47;14.38;;;7.82;;
16634;SDS011;8431;52.458;9.998;2023-05-18T08:16:16;7.63;;;6.78;;
16634;SDS011;8431;52.458;9.998;2023-05-18T08:18:43;8.13;;;7.05;;
16634;SDS011;8431;52.458;9.998;2023-05-18T08:21:10;8.15;;;6.75;;
16634;SDS011;8431;52.458;9.998;2023-05-18T08:23:37;8.30;;;7.30;;
16634;SDS011;8431;52.458;9.998;2023-05-18T08:26:04;10.75;;;7.18;;
16634;SDS011;8431;52.458;9.998;2023-05-18T08:28:32;8.13;;;7.30;;
16634;SDS011;8431;52.458;9.998;2023-05-18T08:30:59;9.10;;;6.75;;
16634;SDS011;8431;52.458;9.998;2023-05-18T08:33:27;12.15;;;6.95;;
16634;SDS011;8431;52.458;9.998;2023-05-18T08:35:56;9.82;;;7.13;;
16634;SDS011;8431;52.458;9.998;2023-05-18T08:41:47;8.02;;;7.18;;
16634;SDS011;8431;52.458;9.998;2023-05-18T08:47:03;8.00;;;7.18;;
16634;SDS011;8431;52.458;9.998;2023-05-18T08:49:35;10.13;;;7.20;;
16634;SDS011;8431;52.458;9.998;2023-05-18T08:52:04;11.35;;;7.85;;
16634;SDS011;8431;52.458;9.998;2023-05-18T08:54:34;8.27;;;7.57;;
16634;SDS011;8431;52.458;9.998;2023-05-18T08:57:02;8.85;;;7.93;;
16634;SDS011;8431;52.458;9.998;2023-05-18T08:59:33;9.65;;;7.65;;
16634;SDS011;8431;52.458;9.998;2023-05-18T09:02:04;8.13;;;7.40;;
16634;SDS011;8431;52.458;9.998;2023-05-18T09:04:31;8.30;;;7.28;;
16634;SDS011;8431;52.458;9.998;2023-05-18T09:07:01;10.48;;;7.13;;
16634;SDS011;8431;52.458;9.998;2023-05-18T09:09:30;7.60;;;6.90;;
16634;SDS011;8431;52.458;9.998;2023-05-18T09:11:57;8.93;;;7.10;;
16634;SDS011;8431;52.458;9.998;2023-05-18T09:14:25;7.65;;;6.63;;
16634;SDS011;8431;52.458;9.998;2023-05-18T09:16:53;10.68;;;6.82;;
16634;SDS011;8431;52.458;9.998;2023-05-18T09:19:20;9.18;;;7.05;;
16634;SDS011;8431;52.458;9.998;2023-05-18T09:21:48;8.07;;;6.88;;
16634;SDS011;8431;52.458;9.998;2023-05-18T09:24:16;10.10;;;7.20;;
16634;SDS011;8431;52.458;9.998;2023-05-18T09:26:47;8.98;;;6.80;;
16634;SDS011;8431;52.458;9.998;2023-05-18T09:29:14;10.82;;;8.02;;
16634;SDS011;8431;52.458;9.998;2023-05-18T09:31:43;8.48;;;7.20;;
16634;SDS011;8431;52.458;9.998;2023-05-18T09:34:12;8.35;;;7.57;;
16634;SDS011;8431;52.458;9.998;2023-05-18T09:40:22;12.75;;;8.07;;
16634;SDS011;8431;52.458;9.998;2023-05-18T09:42:55;8.75;;;6.90;;
16634;SDS011;8431;52.458;9.998;2023-05-18T09:45:22;9.25;;;6.78;;
16634;SDS011;8431;52.458;9.998;2023-05-18T09:47:50;9.32;;;7.15;;
16634;SDS011;8431;52.458;9.998;2023-05-18T09:50:18;11.95;;;7.43;;
16634;SDS011;8431;52.458;9.998;2023-05-18T09:52:45;11.98;;;7.30;;
16634;SDS011;8431;52.458;9.998;2023-05-18T09:55:15;11.32;;;7.22;;
16634;SDS011;8431;52.458;9.998;2023-05-18T09:57:47;9.23;;;6.88;;
16634;SDS011;8431;52.458;9.998;2023-05-18T10:00:15;9.30;;;7.28;;
16634;SDS011;8431;52.458;9.998;2023-05-18T10:02:44;11.05;;;6.85;;
16634;SDS011;8431;52.458;9.998;2023-05-18T10:05:22;11.65;;;7.95;;
16634;SDS011;8431;52.458;9.998;2023-05-18T10:07:51;9.82;;;7.80;;
16634;SDS011;8431;52.458;9.998;2023-05-18T10:10:20;7.30;;;6.60;;
16634;SDS011;8431;52.458;9.998;2023-05-18T10:12:50;13.30;;;6.90;;
16634;SDS011;8431;52.458;9.998;2023-05-18T10:15:19;7.85;;;7.15;;
16634;SDS011;8431;52.458;9.998;2023-05-18T10:17:48;7.32;;;6.65;;
16634;SDS011;8431;52.458;9.998;2023-05-18T10:20:21;7.78;;;6.78;;
16634;SDS011;8431;52.458;9.998;2023-05-18T10:22:54;7.75;;;7.15;;
16634;SDS011;8431;52.458;9.998;2023-05-18T10:25:24;7.95;;;7.25;;
16634;SDS011;8431;52.458;9.998;2023-05-18T10:30:34;11.55;;;7.10;;
16634;SDS011;8431;52.458;9.998;2023-05-18T10:33:13;8.35;;;7.03;;
16634;SDS011;8431;52.458;9.998;2023-05-18T10:35:45;8.90;;;7.18;;
16634;SDS011;8431;52.458;9.998;2023-05-18T10:38:20;7.65;;;6.72;;
16634;SDS011;8431;52.458;9.998;2023-05-18T10:40:56;8.60;;;6.90;;
16634;SDS011;8431;52.458;9.998;2023-05-18T10:46:14;8.90;;;7.22;;
16634;SDS011;8431;52.458;9.998;2023-05-18T10:48:54;7.72;;;7.00;;
16634;SDS011;8431;52.458;9.998;2023-05-18T10:51:29;8.63;;;6.82;;
16634;SDS011;8431;52.458;9.998;2023-05-18T10:54:01;9.88;;;7.78;;
16634;SDS011;8431;52.458;9.998;2023-05-18T10:56:38;8.25;;;7.45;;
16634;SDS011;8431;52.458;9.998;2023-05-18T10:59:08;8.25;;;7.40;;
16634;SDS011;8431;52.458;9.998;2023-05-18T11:01:37;8.07;;;7.25;;
16634;SDS011;8431;52.458;9.998;2023-05-18T11:04:06;8.73;;;7.82;;
16634;SDS011;8431;52.458;9.998;2023-05-18T11:06:33;10.98;;;6.90;;
16634;SDS011;8431;52.458;9.998;2023-05-18T11:09:00;8.73;;;7.03;;
16634;SDS011;8431;52.458;9.998;2023-05-18T11:11:27;11.63;;;8.35;;
16634;SDS011;8431;52.458;9.998;2023-05-18T11:13:58;8.35;;;7.57;;
16634;SDS011;8431;52.458;9.998;2023-05-18T11:16:32;7.75;;;6.68;;
16634;SDS011;8431;52.458;9.998;2023-05-18T11:19:04;8.63;;;7.82;;
16634;SDS011;8431;52.458;9.998;2023-05-18T11:24:18;11.15;;;6.53;;
16634;SDS011;8431;52.458;9.998;2023-05-18T11:26:50;13.05;;;7.35;;
16634;SDS011;8431;52.458;9.998;2023-05-18T11:29:20;7.13;;;6.53;;
16634;SDS011;8431;52.458;9.998;2023-05-18T11:31:51;7.05;;;6.45;;
16634;SDS011;8431;52.458;9.998;2023-05-18T11:37:48;11.25;;;6.72;;
16634;SDS011;8431;52.458;9.998;2023-05-18T11:43:21;6.72;;;6.22;;
16634;SDS011;8431;52.458;9.998;2023-05-18T11:56:35;7.60;;;6.32;;
16634;SDS011;8431;52.458;9.998;2023-05-18T11:59:09;7.30;;;6.70;;
16634;SDS011;8431;52.458;9.998;2023-05-18T12:05:15;6.97;;;6.30;;
16634;SDS011;8431;52.458;9.998;2023-05-18T12:15:09;7.28;;;6.68;;
16634;SDS011;8431;52.458;9.998;2023-05-18T12:17:38;8.07;;;6.97;;
16634;SDS011;8431;52.458;9.998;2023-05-18T12:20:06;7.80;;;6.68;;
16634;SDS011;8431;52.458;9.998;2023-05-18T12:22:35;8.85;;;6.70;;
16634;SDS011;8431;52.458;9.998;2023-05-18T12:25:02;12.13;;;6.88;;
16634;SDS011;8431;52.458;9.998;2023-05-18T12:27:32;8.43;;;7.57;;
16634;SDS011;8431;52.458;9.998;2023-05-18T12:30:04;8.15;;;7.10;;
16634;SDS011;8431;52.458;9.998;2023-05-18T12:32:35;7.07;;;6.47;;
16634;SDS011;8431;52.458;9.998;2023-05-18T12:35:03;7.82;;;7.00;;
16634;SDS011;8431;52.458;9.998;2023-05-18T12:37:31;7.15;;;6.50;;
16634;SDS011;8431;52.458;9.998;2023-05-18T12:39:58;7.32;;;6.63;;
16634;SDS011;8431;52.458;9.998;2023-05-18T12:42:25;7.10;;;6.57;;
16634;SDS011;8431;52.458;9.998;2023-05-18T12:44:53;6.70;;;5.97;;
16634;SDS011;8431;52.458;9.998;2023-05-18T12:47:28;18.13;;;8.48;;
16634;SDS011;8431;52.458;9.998;2023-05-18T12:50:11;5.28;;;4.75;;
16634;SDS011;8431;52.458;9.998;2023-05-18T12:52:38;5.70;;;5.05;;
16634;SDS011;8431;52.458;9.998;2023-05-18T12:55:06;6.20;;;4.38;;
16634;SDS011;8431;52.458;9.998;2023-05-18T12:57:34;10.45;;;6.53;;
16634;SDS011;8431;52.458;9.998;2023-05-18T13:00:10;5.88;;;5.18;;
16634;SDS011;8431;52.458;9.998;2023-05-18T13:02:39;6.13;;;5.07;;
16634;SDS011;8431;52.458;9.998;2023-05-18T13:05:06;5.57;;;5.00;;
16634;SDS011;8431;52.458;9.998;2023-05-18T13:07:34;8.15;;;5.53;;
16634;SDS011;8431;52.458;9.998;2023-05-18T13:10:06;5.45;;;4.95;;
16634;SDS011;8431;52.458;9.998;2023-05-18T13:12:44;6.88;;;5.00;;
16634;SDS011;8431;52.458;9.998;2023-05-18T13:15:14;6.30;;;5.13;;
16634;SDS011;8431;52.458;9.998;2023-05-18T13:17:55;7.28;;;5.57;;
16634;SDS011;8431;52.458;9.998;2023-05-18T13:20:28;6.88;;;5.68;;
16634;SDS011;8431;52.458;9.998;2023-05-18T13:22:56;6.60;;;5.20;;
16634;SDS011;8431;52.458;9.998;2023-05-18T13:25:24;7.43;;;5.00;;
16634;SDS011;8431;52.458;9.998;2023-05-18T13:27:51;5.93;;;5.32;;
16634;SDS011;8431;52.458;9.998;2023-05-18T13:30:21;7.43;;;5.60;;
16634;SDS011;8431;52.458;9.998;2023-05-18T13:32:48;6.88;;;5.57;;
16634;SDS011;8431;52.458;9.998;2023-05-18T13:35:16;5.80;;;5.38;;
16634;SDS011;8431;52.458;9.998;2023-05-18T13:37:44;6.90;;;6.20;;
16634;SDS011;8431;52.458;9.998;2023-05-18T13:40:12;7.05;;;5.60;;
16634;SDS011;8431;52.458;9.998;2023-05-18T13:42:40;9.32;;;7.65;;
16634;SDS011;8431;52.458;9.998;2023-05-18T13:45:07;6.93;;;5.88;;
16634;SDS011;8431;52.458;9.998;2023-05-18T13:47:36;6.15;;;5.65;;
16634;SDS011;8431;52.458;9.998;2023-05-18T13:50:04;8.00;;;5.30;;
16634;SDS011;8431;52.458;9.998;2023-05-18T13:52:31;6.45;;;5.38;;
16634;SDS011;8431;52.458;9.998;2023-05-18T13:54:58;5.55;;;5.05;;
16634;SDS011;8431;52.458;9.998;2023-05-18T13:57:25;7.50;;;5.38;;
16634;SDS011;8431;52.458;9.998;2023-05-18T13:59:57;7.65;;;5.40;;
16634;SDS011;8431;52.458;9.998;2023-05-18T14:02:27;6.88;;;5.53;;
16634;SDS011;8431;52.458;9.998;2023-05-18T14:04:56;9.95;;;6.20;;
16634;SDS011;8431;52.458;9.998;2023-05-18T14:07:24;8.38;;;5.72;;
16634;SDS011;8431;52.458;9.998;2023-05-18T14:09:52;5.43;;;4.93;;
16634;SDS011;8431;52.458;9.998;2023-05-18T14:12:19;11.70;;;6.13;;
16634;SDS011;8431;52.458;9.998;2023-05-18T14:14:46;5.60;;;5.03;;
16634;SDS011;8431;52.458;9.998;2023-05-18T14:17:13;6.50;;;4.85;;
16634;SDS011;8431;52.458;9.998;2023-05-18T14:19:40;5.68;;;5.18;;
16634;SDS011;8431;52.458;9.998;2023-05-18T14:22:09;10.07;;;4.90;;
16634;SDS011;8431;52.458;9.998;2023-05-18T14:24:36;6.25;;;5.10;;
16634;SDS011;8431;52.458;9.998;2023-05-18T14:27:02;7.15;;;4.72;;
16634;SDS011;8431;52.458;9.998;2023-05-18T14:29:30;7.95;;;5.30;;
16634;SDS011;8431;52.458;9.998;2023-05-18T14:31:57;6.53;;;5.38;;
16634;SDS011;8431;52.458;9.998;2023-05-18T14:34:24;5.88;;;5.32;;
16634;SDS011;8431;52.458;9.998;2023-05-18T14:36:51;6.97;;;4.85;;
16634;SDS011;8431;52.458;9.998;2023-05-18T14:39:20;7.03;;;4.60;;
16634;SDS011;8431;52.458;9.998;2023-05-18T14:41:56;6.35;;;5.45;;
16634;SDS011;8431;52.458;9.998;2023-05-18T14:44:23;9.20;;;5.10;;
16634;SDS011;8431;52.458;9.998;2023-05-18T14:46:50;6.88;;;4.88;;
16634;SDS011;8431;52.458;9.998;2023-05-18T14:49:17;6.07;;;5.43;;
16634;SDS011;8431;52.458;9.998;2023-05-18T14:51:44;7.78;;;5.43;;
16634;SDS011;8431;52.458;9.998;2023-05-18T14:54:12;7.07;;;5.35;;
16634;SDS011;8431;52.458;9.998;2023-05-18T14:56:41;6.68;;;5.18;;
16634;SDS011;8431;52.458;9.998;2023-05-18T14:59:08;7.85;;;6.38;;
16634;SDS011;8431;52.458;9.998;2023-05-18T15:01:34;16.83;;;5.95;;
16634;SDS011;8431;52.458;9.998;2023-05-18T15:04:01;5.80;;;5.30;;
16634;SDS011;8431;52.458;9.998;2023-05-18T15:06:28;5.97;;;5.22;;
16634;SDS011;8431;52.458;9.998;2023-05-18T15:08:59;6.68;;;5.45;;
16634;SDS011;8431;52.458;9.998;2023-05-18T15:11:26;6.82;;;4.95;;
16634;SDS011;8431;52.458;9.998;2023-05-18T15:13:54;8.52;;;5.20;;
16634;SDS011;8431;52.458;9.998;2023-05-18T15:16:21;5.68;;;4.93;;
16634;SDS011;8431;52.458;9.998;2023-05-18T15:18:48;6.95;;;5.10;;
16634;SDS011;8431;52.458;9.998;2023-05-18T15:21:15;5.95;;;5.32;;
16634;SDS011;8431;52.458;9.998;2023-05-18T15:23:42;6.18;;;5.57;;
16634;SDS011;8431;52.458;9.998;2023-05-18T15:26:09;5.80;;;5.30;;
16634;SDS011;8431;52.458;9.998;2023-05-18T15:28:36;6.07;;;5.32;;
16634;SDS011;8431;52.458;9.998;2023-05-18T15:31:06;6.18;;;5.57;;
16634;SDS011;8431;52.458;9.998;2023-05-18T15:33:33;6.38;;;5.32;;
16634;SDS011;8431;52.458;9.998;2023-05-18T15:36:06;6.53;;;5.93;;
16634;SDS011;8431;52.458;9.998;2023-05-18T15:38:33;13.18;;;5.22;;
16634;SDS011;8431;52.458;9.998;2023-05-18T15:41:00;5.80;;;4.88;;
16634;SDS011;8431;52.458;9.998;2023-05-18T15:43:27;9.38;;;5.32;;
16634;SDS011;8431;52.458;9.998;2023-05-18T15:45:55;6.50;;;5.22;;
16634;SDS011;8431;52.458;9.998;2023-05-18T15:48:23;7.22;;;5.72;;
16634;SDS011;8431;52.458;9.998;2023-05-18T15:50:54;5.65;;;5.15;;
16634;SDS011;8431;52.458;9.998;2023-05-18T15:53:21;7.82;;;5.85;;
16634;SDS011;8431;52.458;9.998;2023-05-18T15:55:50;6.63;;;5.60;;
16634;SDS011;8431;52.458;9.998;2023-05-18T15:58:45;7.80;;;5.65;;